sensor_id;sensor_type;location;lat;lon;timestamp;P1;durP1;ratioP1;P2;durP2;ratioP2
77625;SDS011;66794;43.764;10.436;2023-10-13T00:01:13;29.63;;;21.92;;
77625;SDS011;66794;43.764;10.436;2023-10-13T00:03:59;31.55;;;22.98;;
77625;SDS011;66794;43.764;10.436;2023-10-13T00:06:51;33.55;;;23.42;;
77625;SDS011;66794;43.764;10.436;2023-10-13T00:09:38;28.67;;;21.58;;
77625;SDS011;66794;43.764;10.436;2023-10-13T00:12:24;30.27;;;21.15;;
77625;SDS011;66794;43.764;10.436;2023-10-13T00:15:10;27.85;;;21.33;;
77625;SDS011;66794;43.764;10.436;2023-10-13T00:17:59;23.80;;;19.98;;
77625;SDS011;66794;43.764;10.436;2023-10-13T00:20:45;23.40;;;19.38;;
77625;SDS011;66794;43.764;10.436;2023-10-13T00:23:34;29.75;;;21.73;;
77625;SDS011;66794;43.764;10.436;2023-10-13T00:26:20;24.85;;;19.48;;
77625;SDS011;66794;43.764;10.436;2023-10-13T00:29:13;25.25;;;20.38;;
77625;SDS011;66794;43.764;10.436;2023-10-13T00:31:58;27.73;;;22.20;;
77625;SDS011;66794;43.764;10.436;2023-10-13T00:34:45;26.08;;;19.73;;
77625;SDS011;66794;43.764;10.436;2023-10-13T00:37:31;24.48;;;19.15;;
77625;SDS011;66794;43.764;10.436;2023-10-13T00:40:26;26.88;;;20.60;;
77625;SDS011;66794;43.764;10.436;2023-10-13T00:43:15;29.50;;;22.05;;
77625;SDS011;66794;43.764;10.436;2023-10-13T00:46:03;25.77;;;20.05;;
77625;SDS011;66794;43.764;10.436;2023-10-13T00:48:53;26.70;;;20.65;;
77625;SDS011;66794;43.764;10.436;2023-10-13T00:51:39;29.85;;;20.67;;
77625;SDS011;66794;43.764;10.436;2023-10-13T00:54:34;32.97;;;23.30;;
77625;SDS011;66794;43.764;10.436;2023-10-13T00:57:22;40.03;;;27.88;;
77625;SDS011;66794;43.764;10.436;2023-10-13T01:00:15;18.05;;;14.63;;
77625;SDS011;66794;43.764;10.436;2023-10-13T01:03:13;15.73;;;12.93;;
77625;SDS011;66794;43.764;10.436;2023-10-13T01:05:59;24.70;;;18.90;;
77625;SDS011;66794;43.764;10.436;2023-10-13T01:08:45;17.65;;;13.15;;
77625;SDS011;66794;43.764;10.436;2023-10-13T01:11:37;16.17;;;12.15;;
77625;SDS011;66794;43.764;10.436;2023-10-13T01:14:24;27.48;;;18.80;;
77625;SDS011;66794;43.764;10.436;2023-10-13T01:17:14;22.65;;;17.20;;
77625;SDS011;66794;43.764;10.436;2023-10-13T01:20:00;22.20;;;18.10;;
77625;SDS011;66794;43.764;10.436;2023-10-13T01:22:46;19.00;;;15.25;;
77625;SDS011;66794;43.764;10.436;2023-10-13T01:25:40;20.23;;;17.23;;
77625;SDS011;66794;43.764;10.436;2023-10-13T01:28:26;17.77;;;15.02;;
77625;SDS011;66794;43.764;10.436;2023-10-13T01:31:12;49.15;;;19.65;;
77625;SDS011;66794;43.764;10.436;2023-10-13T01:36:58;43.53;;;22.50;;
77625;SDS011;66794;43.764;10.436;2023-10-13T01:39:50;32.92;;;24.90;;
77625;SDS011;66794;43.764;10.436;2023-10-13T01:42:36;36.92;;;26.17;;
77625;SDS011;66794;43.764;10.436;2023-10-13T01:45:22;33.95;;;25.40;;
77625;SDS011;66794;43.764;10.436;2023-10-13T01:48:14;33.60;;;25.60;;
77625;SDS011;66794;43.764;10.436;2023-10-13T01:51:06;37.05;;;26.92;;
77625;SDS011;66794;43.764;10.436;2023-10-13T01:53:55;35.75;;;26.27;;
77625;SDS011;66794;43.764;10.436;2023-10-13T01:56:43;37.15;;;25.35;;
77625;SDS011;66794;43.764;10.436;2023-10-13T01:59:29;36.90;;;24.48;;
77625;SDS011;66794;43.764;10.436;2023-10-13T02:02:15;30.42;;;24.15;;
77625;SDS011;66794;43.764;10.436;2023-10-13T02:05:14;32.80;;;23.65;;
77625;SDS011;66794;43.764;10.436;2023-10-13T02:08:02;32.22;;;22.55;;
77625;SDS011;66794;43.764;10.436;2023-10-13T02:10:48;29.10;;;22.13;;
77625;SDS011;66794;43.764;10.436;2023-10-13T02:13:35;29.23;;;21.48;;
77625;SDS011;66794;43.764;10.436;2023-10-13T02:16:33;31.15;;;21.45;;
77625;SDS011;66794;43.764;10.436;2023-10-13T02:19:22;27.92;;;22.63;;
77625;SDS011;66794;43.764;10.436;2023-10-13T02:22:13;31.95;;;22.33;;
77625;SDS011;66794;43.764;10.436;2023-10-13T02:25:17;30.20;;;21.80;;
77625;SDS011;66794;43.764;10.436;2023-10-13T02:28:20;31.65;;;22.02;;
77625;SDS011;66794;43.764;10.436;2023-10-13T02:31:13;26.98;;;20.60;;
77625;SDS011;66794;43.764;10.436;2023-10-13T02:33:59;31.77;;;21.70;;
77625;SDS011;66794;43.764;10.436;2023-10-13T02:36:46;32.28;;;21.23;;
77625;SDS011;66794;43.764;10.436;2023-10-13T02:39:35;28.42;;;20.75;;
77625;SDS011;66794;43.764;10.436;2023-10-13T02:42:21;26.23;;;20.25;;
77625;SDS011;66794;43.764;10.436;2023-10-13T02:45:10;27.15;;;20.10;;
77625;SDS011;66794;43.764;10.436;2023-10-13T02:47:58;28.88;;;20.15;;
77625;SDS011;66794;43.764;10.436;2023-10-13T02:50:59;24.80;;;19.40;;
77625;SDS011;66794;43.764;10.436;2023-10-13T02:53:51;25.08;;;19.05;;
77625;SDS011;66794;43.764;10.436;2023-10-13T02:56:38;27.55;;;20.27;;
77625;SDS011;66794;43.764;10.436;2023-10-13T02:59:44;24.92;;;18.92;;
77625;SDS011;66794;43.764;10.436;2023-10-13T03:02:32;25.55;;;18.17;;
77625;SDS011;66794;43.764;10.436;2023-10-13T03:05:21;25.85;;;18.17;;
77625;SDS011;66794;43.764;10.436;2023-10-13T03:08:08;23.33;;;18.45;;
77625;SDS011;66794;43.764;10.436;2023-10-13T03:10:56;24.45;;;19.20;;
77625;SDS011;66794;43.764;10.436;2023-10-13T03:13:42;25.83;;;17.15;;
77625;SDS011;66794;43.764;10.436;2023-10-13T03:16:30;24.88;;;15.95;;
77625;SDS011;66794;43.764;10.436;2023-10-13T03:19:16;24.52;;;18.55;;
77625;SDS011;66794;43.764;10.436;2023-10-13T03:22:05;20.20;;;16.08;;
77625;SDS011;66794;43.764;10.436;2023-10-13T03:24:58;29.00;;;16.90;;
77625;SDS011;66794;43.764;10.436;2023-10-13T03:27:58;22.77;;;17.08;;
77625;SDS011;66794;43.764;10.436;2023-10-13T03:30:44;23.42;;;17.05;;
77625;SDS011;66794;43.764;10.436;2023-10-13T03:33:30;23.08;;;16.95;;
77625;SDS011;66794;43.764;10.436;2023-10-13T03:36:18;22.52;;;16.80;;
77625;SDS011;66794;43.764;10.436;2023-10-13T03:39:22;22.80;;;17.75;;
77625;SDS011;66794;43.764;10.436;2023-10-13T03:42:16;24.77;;;18.13;;
77625;SDS011;66794;43.764;10.436;2023-10-13T03:45:07;21.88;;;17.60;;
77625;SDS011;66794;43.764;10.436;2023-10-13T03:47:56;26.38;;;18.40;;
77625;SDS011;66794;43.764;10.436;2023-10-13T03:50:41;29.83;;;21.58;;
77625;SDS011;66794;43.764;10.436;2023-10-13T03:53:43;42.13;;;26.70;;
77625;SDS011;66794;43.764;10.436;2023-10-13T03:56:37;25.85;;;20.10;;
77625;SDS011;66794;43.764;10.436;2023-10-13T03:59:26;23.95;;;19.38;;
77625;SDS011;66794;43.764;10.436;2023-10-13T04:02:20;26.65;;;20.85;;
77625;SDS011;66794;43.764;10.436;2023-10-13T04:05:06;24.35;;;20.13;;
77625;SDS011;66794;43.764;10.436;2023-10-13T04:08:04;21.67;;;17.98;;
77625;SDS011;66794;43.764;10.436;2023-10-13T04:11:28;25.80;;;18.35;;
77625;SDS011;66794;43.764;10.436;2023-10-13T04:14:46;23.55;;;18.35;;
77625;SDS011;66794;43.764;10.436;2023-10-13T04:17:43;24.88;;;18.13;;
77625;SDS011;66794;43.764;10.436;2023-10-13T04:20:31;26.42;;;19.55;;
77625;SDS011;66794;43.764;10.436;2023-10-13T04:23:23;28.40;;;20.23;;
77625;SDS011;66794;43.764;10.436;2023-10-13T04:26:11;31.02;;;22.30;;
77625;SDS011;66794;43.764;10.436;2023-10-13T04:29:06;26.83;;;19.77;;
77625;SDS011;66794;43.764;10.436;2023-10-13T04:35:11;30.35;;;19.33;;
77625;SDS011;66794;43.764;10.436;2023-10-13T04:37:59;28.65;;;20.35;;
77625;SDS011;66794;43.764;10.436;2023-10-13T04:40:46;26.52;;;19.40;;
77625;SDS011;66794;43.764;10.436;2023-10-13T04:43:46;27.17;;;17.35;;
77625;SDS011;66794;43.764;10.436;2023-10-13T04:49:39;24.17;;;19.17;;
77625;SDS011;66794;43.764;10.436;2023-10-13T04:52:28;25.08;;;19.25;;
77625;SDS011;66794;43.764;10.436;2023-10-13T04:55:33;28.45;;;20.73;;
77625;SDS011;66794;43.764;10.436;2023-10-13T04:58:52;28.67;;;21.08;;
77625;SDS011;66794;43.764;10.436;2023-10-13T05:01:57;30.10;;;20.20;;
77625;SDS011;66794;43.764;10.436;2023-10-13T05:04:43;30.63;;;20.05;;
77625;SDS011;66794;43.764;10.436;2023-10-13T05:07:47;27.23;;;20.70;;
77625;SDS011;66794;43.764;10.436;2023-10-13T05:10:52;30.67;;;21.05;;
77625;SDS011;66794;43.764;10.436;2023-10-13T05:13:56;31.75;;;20.45;;
77625;SDS011;66794;43.764;10.436;2023-10-13T05:17:02;31.50;;;21.17;;
77625;SDS011;66794;43.764;10.436;2023-10-13T05:20:07;36.17;;;24.13;;
77625;SDS011;66794;43.764;10.436;2023-10-13T05:23:11;33.97;;;23.73;;
77625;SDS011;66794;43.764;10.436;2023-10-13T05:26:16;34.30;;;25.13;;
77625;SDS011;66794;43.764;10.436;2023-10-13T05:29:21;37.72;;;25.13;;
77625;SDS011;66794;43.764;10.436;2023-10-13T05:32:25;34.05;;;23.05;;
77625;SDS011;66794;43.764;10.436;2023-10-13T05:35:30;36.47;;;23.03;;
77625;SDS011;66794;43.764;10.436;2023-10-13T05:38:35;29.90;;;20.92;;
77625;SDS011;66794;43.764;10.436;2023-10-13T05:41:39;27.98;;;19.98;;
77625;SDS011;66794;43.764;10.436;2023-10-13T05:44:43;25.65;;;19.38;;
77625;SDS011;66794;43.764;10.436;2023-10-13T05:47:41;27.85;;;18.17;;
77625;SDS011;66794;43.764;10.436;2023-10-13T05:50:27;23.95;;;19.35;;
77625;SDS011;66794;43.764;10.436;2023-10-13T05:53:13;28.73;;;18.63;;
77625;SDS011;66794;43.764;10.436;2023-10-13T05:56:01;29.08;;;18.95;;
77625;SDS011;66794;43.764;10.436;2023-10-13T05:59:07;31.33;;;18.90;;
77625;SDS011;66794;43.764;10.436;2023-10-13T06:02:15;25.45;;;18.52;;
77625;SDS011;66794;43.764;10.436;2023-10-13T06:05:20;29.92;;;20.88;;
77625;SDS011;66794;43.764;10.436;2023-10-13T06:08:25;31.42;;;21.17;;
77625;SDS011;66794;43.764;10.436;2023-10-13T06:11:29;30.98;;;22.10;;
77625;SDS011;66794;43.764;10.436;2023-10-13T06:14:33;28.77;;;20.20;;
77625;SDS011;66794;43.764;10.436;2023-10-13T06:17:38;32.05;;;18.30;;
77625;SDS011;66794;43.764;10.436;2023-10-13T06:20:42;28.90;;;20.25;;
77625;SDS011;66794;43.764;10.436;2023-10-13T06:23:46;27.35;;;19.55;;
77625;SDS011;66794;43.764;10.436;2023-10-13T06:26:50;29.23;;;19.50;;
77625;SDS011;66794;43.764;10.436;2023-10-13T06:29:55;30.13;;;21.45;;
77625;SDS011;66794;43.764;10.436;2023-10-13T06:32:40;30.85;;;22.13;;
77625;SDS011;66794;43.764;10.436;2023-10-13T06:35:26;33.55;;;23.77;;
77625;SDS011;66794;43.764;10.436;2023-10-13T06:38:12;35.47;;;24.67;;
77625;SDS011;66794;43.764;10.436;2023-10-13T06:41:06;35.80;;;25.25;;
77625;SDS011;66794;43.764;10.436;2023-10-13T06:43:53;33.78;;;24.42;;
77625;SDS011;66794;43.764;10.436;2023-10-13T06:46:44;33.42;;;23.73;;
77625;SDS011;66794;43.764;10.436;2023-10-13T06:49:31;35.67;;;23.90;;
77625;SDS011;66794;43.764;10.436;2023-10-13T06:52:24;39.22;;;26.08;;
77625;SDS011;66794;43.764;10.436;2023-10-13T06:55:14;34.90;;;26.27;;
77625;SDS011;66794;43.764;10.436;2023-10-13T06:58:09;37.30;;;27.20;;
77625;SDS011;66794;43.764;10.436;2023-10-13T07:00:59;39.78;;;28.55;;
77625;SDS011;66794;43.764;10.436;2023-10-13T07:03:44;42.95;;;28.25;;
77625;SDS011;66794;43.764;10.436;2023-10-13T07:06:38;43.53;;;28.58;;
77625;SDS011;66794;43.764;10.436;2023-10-13T07:09:27;49.75;;;32.03;;
77625;SDS011;66794;43.764;10.436;2023-10-13T07:12:19;51.15;;;32.83;;
77625;SDS011;66794;43.764;10.436;2023-10-13T07:15:08;48.22;;;31.23;;
77625;SDS011;66794;43.764;10.436;2023-10-13T07:18:04;49.67;;;31.65;;
77625;SDS011;66794;43.764;10.436;2023-10-13T07:20:51;44.38;;;30.42;;
77625;SDS011;66794;43.764;10.436;2023-10-13T07:23:37;42.40;;;29.33;;
77625;SDS011;66794;43.764;10.436;2023-10-13T07:26:23;42.22;;;29.00;;
77625;SDS011;66794;43.764;10.436;2023-10-13T07:29:09;39.55;;;28.45;;
77625;SDS011;66794;43.764;10.436;2023-10-13T07:31:55;37.72;;;27.25;;
77625;SDS011;66794;43.764;10.436;2023-10-13T07:34:41;37.53;;;28.33;;
77625;SDS011;66794;43.764;10.436;2023-10-13T07:37:27;39.60;;;28.70;;
77625;SDS011;66794;43.764;10.436;2023-10-13T07:40:18;39.35;;;27.05;;
77625;SDS011;66794;43.764;10.436;2023-10-13T07:43:25;39.80;;;28.23;;
77625;SDS011;66794;43.764;10.436;2023-10-13T07:46:12;36.63;;;26.80;;
77625;SDS011;66794;43.764;10.436;2023-10-13T07:48:58;40.58;;;26.08;;
77625;SDS011;66794;43.764;10.436;2023-10-13T07:51:59;33.45;;;25.30;;
77625;SDS011;66794;43.764;10.436;2023-10-13T07:55:00;42.13;;;26.27;;
77625;SDS011;66794;43.764;10.436;2023-10-13T07:57:56;36.50;;;25.63;;
77625;SDS011;66794;43.764;10.436;2023-10-13T08:00:44;38.85;;;26.27;;
77625;SDS011;66794;43.764;10.436;2023-10-13T08:03:30;32.63;;;24.63;;
77625;SDS011;66794;43.764;10.436;2023-10-13T08:06:31;42.88;;;26.27;;
77625;SDS011;66794;43.764;10.436;2023-10-13T08:09:17;32.75;;;24.15;;
77625;SDS011;66794;43.764;10.436;2023-10-13T08:12:25;30.63;;;23.15;;
77625;SDS011;66794;43.764;10.436;2023-10-13T08:15:11;30.30;;;22.90;;
77625;SDS011;66794;43.764;10.436;2023-10-13T08:18:06;30.95;;;23.20;;
77625;SDS011;66794;43.764;10.436;2023-10-13T08:21:02;31.58;;;21.55;;
77625;SDS011;66794;43.764;10.436;2023-10-13T08:23:49;28.77;;;20.67;;
77625;SDS011;66794;43.764;10.436;2023-10-13T08:26:41;24.52;;;18.70;;
77625;SDS011;66794;43.764;10.436;2023-10-13T08:29:46;25.65;;;19.40;;
77625;SDS011;66794;43.764;10.436;2023-10-13T08:32:41;23.15;;;19.27;;
77625;SDS011;66794;43.764;10.436;2023-10-13T08:35:39;24.75;;;19.38;;
77625;SDS011;66794;43.764;10.436;2023-10-13T08:38:39;25.25;;;19.00;;
77625;SDS011;66794;43.764;10.436;2023-10-13T08:41:37;26.40;;;19.65;;
77625;SDS011;66794;43.764;10.436;2023-10-13T08:44:44;22.85;;;17.83;;
77625;SDS011;66794;43.764;10.436;2023-10-13T08:47:37;22.75;;;16.95;;
77625;SDS011;66794;43.764;10.436;2023-10-13T08:50:24;22.48;;;17.60;;
77625;SDS011;66794;43.764;10.436;2023-10-13T08:53:29;26.85;;;17.52;;
77625;SDS011;66794;43.764;10.436;2023-10-13T08:56:30;22.92;;;18.23;;
77625;SDS011;66794;43.764;10.436;2023-10-13T08:59:20;24.98;;;17.92;;
77625;SDS011;66794;43.764;10.436;2023-10-13T09:02:24;22.80;;;17.45;;
77625;SDS011;66794;43.764;10.436;2023-10-13T09:05:28;25.67;;;18.42;;
77625;SDS011;66794;43.764;10.436;2023-10-13T09:08:46;24.15;;;18.40;;
77625;SDS011;66794;43.764;10.436;2023-10-13T09:11:50;26.88;;;18.90;;
77625;SDS011;66794;43.764;10.436;2023-10-13T09:14:39;22.40;;;18.67;;
77625;SDS011;66794;43.764;10.436;2023-10-13T09:17:30;26.35;;;18.40;;
77625;SDS011;66794;43.764;10.436;2023-10-13T09:20:28;25.08;;;18.75;;
77625;SDS011;66794;43.764;10.436;2023-10-13T09:23:28;28.48;;;22.40;;
77625;SDS011;66794;43.764;10.436;2023-10-13T09:26:33;22.25;;;18.85;;
77625;SDS011;66794;43.764;10.436;2023-10-13T09:29:21;25.80;;;19.38;;
77625;SDS011;66794;43.764;10.436;2023-10-13T09:32:09;23.27;;;18.20;;
77625;SDS011;66794;43.764;10.436;2023-10-13T09:35:01;24.40;;;17.48;;
77625;SDS011;66794;43.764;10.436;2023-10-13T09:37:48;24.33;;;18.63;;
77625;SDS011;66794;43.764;10.436;2023-10-13T09:40:35;33.22;;;20.02;;
77625;SDS011;66794;43.764;10.436;2023-10-13T09:43:23;25.63;;;18.70;;
77625;SDS011;66794;43.764;10.436;2023-10-13T09:46:16;20.50;;;16.73;;
77625;SDS011;66794;43.764;10.436;2023-10-13T09:49:05;23.80;;;15.18;;
77625;SDS011;66794;43.764;10.436;2023-10-13T09:52:01;20.60;;;15.32;;
77625;SDS011;66794;43.764;10.436;2023-10-13T09:55:08;28.00;;;16.20;;
77625;SDS011;66794;43.764;10.436;2023-10-13T09:58:04;21.23;;;15.13;;
77625;SDS011;66794;43.764;10.436;2023-10-13T10:00:57;22.10;;;16.45;;
77625;SDS011;66794;43.764;10.436;2023-10-13T10:03:53;18.25;;;15.35;;
77625;SDS011;66794;43.764;10.436;2023-10-13T10:07:05;21.33;;;14.52;;
77625;SDS011;66794;43.764;10.436;2023-10-13T10:09:55;19.90;;;15.60;;
77625;SDS011;66794;43.764;10.436;2023-10-13T10:12:49;16.75;;;13.43;;
77625;SDS011;66794;43.764;10.436;2023-10-13T10:15:43;19.83;;;14.57;;
77625;SDS011;66794;43.764;10.436;2023-10-13T10:18:32;24.85;;;15.13;;
77625;SDS011;66794;43.764;10.436;2023-10-13T10:21:18;22.13;;;15.48;;
77625;SDS011;66794;43.764;10.436;2023-10-13T10:24:16;22.88;;;15.40;;
77625;SDS011;66794;43.764;10.436;2023-10-13T10:27:23;26.42;;;14.75;;
77625;SDS011;66794;43.764;10.436;2023-10-13T10:32:59;15.98;;;13.45;;
77625;SDS011;66794;43.764;10.436;2023-10-13T10:35:46;22.20;;;13.13;;
77625;SDS011;66794;43.764;10.436;2023-10-13T10:38:53;19.20;;;13.27;;
77625;SDS011;66794;43.764;10.436;2023-10-13T10:41:44;16.25;;;12.45;;
77625;SDS011;66794;43.764;10.436;2023-10-13T10:44:31;16.75;;;12.13;;
77625;SDS011;66794;43.764;10.436;2023-10-13T10:47:28;21.40;;;13.93;;
77625;SDS011;66794;43.764;10.436;2023-10-13T10:50:24;14.13;;;12.70;;
77625;SDS011;66794;43.764;10.436;2023-10-13T10:53:23;17.52;;;12.70;;
77625;SDS011;66794;43.764;10.436;2023-10-13T10:56:28;20.95;;;11.77;;
77625;SDS011;66794;43.764;10.436;2023-10-13T10:59:23;17.00;;;11.85;;
77625;SDS011;66794;43.764;10.436;2023-10-13T11:02:10;15.48;;;12.38;;
77625;SDS011;66794;43.764;10.436;2023-10-13T11:05:00;17.92;;;12.25;;
77625;SDS011;66794;43.764;10.436;2023-10-13T11:07:47;17.48;;;13.07;;
77625;SDS011;66794;43.764;10.436;2023-10-13T11:10:36;17.67;;;12.38;;
77625;SDS011;66794;43.764;10.436;2023-10-13T11:13:42;16.33;;;13.45;;
77625;SDS011;66794;43.764;10.436;2023-10-13T11:16:36;16.73;;;13.18;;
77625;SDS011;66794;43.764;10.436;2023-10-13T11:19:42;17.30;;;12.48;;
77625;SDS011;66794;43.764;10.436;2023-10-13T11:22:28;15.73;;;11.98;;
77625;SDS011;66794;43.764;10.436;2023-10-13T11:25:29;18.33;;;12.80;;
77625;SDS011;66794;43.764;10.436;2023-10-13T11:28:20;16.05;;;11.70;;
77625;SDS011;66794;43.764;10.436;2023-10-13T11:31:06;17.50;;;11.35;;
77625;SDS011;66794;43.764;10.436;2023-10-13T11:34:04;13.10;;;11.30;;
77625;SDS011;66794;43.764;10.436;2023-10-13T11:36:51;17.63;;;11.77;;
77625;SDS011;66794;43.764;10.436;2023-10-13T11:39:37;18.83;;;12.68;;
77625;SDS011;66794;43.764;10.436;2023-10-13T11:42:27;17.13;;;11.43;;
77625;SDS011;66794;43.764;10.436;2023-10-13T11:45:13;15.00;;;12.20;;
77625;SDS011;66794;43.764;10.436;2023-10-13T11:48:31;14.68;;;12.32;;
77625;SDS011;66794;43.764;10.436;2023-10-13T11:51:22;15.48;;;11.98;;
77625;SDS011;66794;43.764;10.436;2023-10-13T11:54:23;17.77;;;12.18;;
77625;SDS011;66794;43.764;10.436;2023-10-13T11:57:09;19.67;;;12.23;;
77625;SDS011;66794;43.764;10.436;2023-10-13T11:59:55;16.58;;;12.68;;
77625;SDS011;66794;43.764;10.436;2023-10-13T12:03:01;20.70;;;12.88;;
77625;SDS011;66794;43.764;10.436;2023-10-13T12:06:08;14.70;;;11.37;;
77625;SDS011;66794;43.764;10.436;2023-10-13T12:09:13;21.02;;;11.13;;
77625;SDS011;66794;43.764;10.436;2023-10-13T12:12:04;11.38;;;9.88;;
77625;SDS011;66794;43.764;10.436;2023-10-13T12:14:50;11.35;;;8.80;;
77625;SDS011;66794;43.764;10.436;2023-10-13T12:17:42;11.05;;;9.05;;
77625;SDS011;66794;43.764;10.436;2023-10-13T12:20:30;13.30;;;8.80;;
77625;SDS011;66794;43.764;10.436;2023-10-13T12:23:20;13.20;;;8.98;;
77625;SDS011;66794;43.764;10.436;2023-10-13T12:26:16;13.02;;;8.88;;
77625;SDS011;66794;43.764;10.436;2023-10-13T12:29:05;11.10;;;8.68;;
77625;SDS011;66794;43.764;10.436;2023-10-13T12:32:04;10.25;;;8.90;;
77625;SDS011;66794;43.764;10.436;2023-10-13T12:34:58;13.60;;;8.98;;
77625;SDS011;66794;43.764;10.436;2023-10-13T12:37:49;10.48;;;8.65;;
77625;SDS011;66794;43.764;10.436;2023-10-13T12:40:35;11.60;;;8.77;;
77625;SDS011;66794;43.764;10.436;2023-10-13T12:43:40;9.73;;;8.45;;
77625;SDS011;66794;43.764;10.436;2023-10-13T12:46:44;16.23;;;8.63;;
77625;SDS011;66794;43.764;10.436;2023-10-13T12:49:48;12.95;;;8.60;;
77625;SDS011;66794;43.764;10.436;2023-10-13T12:52:34;12.02;;;8.93;;
77625;SDS011;66794;43.764;10.436;2023-10-13T12:55:20;10.85;;;8.38;;
77625;SDS011;66794;43.764;10.436;2023-10-13T12:58:10;12.13;;;7.97;;
77625;SDS011;66794;43.764;10.436;2023-10-13T13:00:59;11.52;;;8.18;;
77625;SDS011;66794;43.764;10.436;2023-10-13T13:03:52;11.85;;;8.60;;
77625;SDS011;66794;43.764;10.436;2023-10-13T13:06:41;10.38;;;8.10;;
77625;SDS011;66794;43.764;10.436;2023-10-13T13:09:26;14.45;;;8.70;;
77625;SDS011;66794;43.764;10.436;2023-10-13T13:12:12;11.30;;;8.52;;
77625;SDS011;66794;43.764;10.436;2023-10-13T13:14:58;13.45;;;8.52;;
77625;SDS011;66794;43.764;10.436;2023-10-13T13:17:45;10.30;;;8.55;;
77625;SDS011;66794;43.764;10.436;2023-10-13T13:20:32;10.73;;;8.70;;
77625;SDS011;66794;43.764;10.436;2023-10-13T13:23:19;11.77;;;8.00;;
77625;SDS011;66794;43.764;10.436;2023-10-13T13:26:05;12.35;;;8.23;;
77625;SDS011;66794;43.764;10.436;2023-10-13T13:29:01;17.25;;;8.30;;
77625;SDS011;66794;43.764;10.436;2023-10-13T13:31:46;10.77;;;8.57;;
77625;SDS011;66794;43.764;10.436;2023-10-13T13:34:32;11.70;;;8.48;;
77625;SDS011;66794;43.764;10.436;2023-10-13T13:37:18;11.73;;;8.27;;
77625;SDS011;66794;43.764;10.436;2023-10-13T13:40:05;11.68;;;8.55;;
77625;SDS011;66794;43.764;10.436;2023-10-13T13:43:01;12.02;;;8.70;;
77625;SDS011;66794;43.764;10.436;2023-10-13T13:45:47;9.73;;;8.18;;
77625;SDS011;66794;43.764;10.436;2023-10-13T13:48:33;9.57;;;8.32;;
77625;SDS011;66794;43.764;10.436;2023-10-13T13:51:19;12.35;;;8.35;;
77625;SDS011;66794;43.764;10.436;2023-10-13T13:54:11;12.35;;;7.78;;
77625;SDS011;66794;43.764;10.436;2023-10-13T13:56:57;11.10;;;8.57;;
77625;SDS011;66794;43.764;10.436;2023-10-13T13:59:43;9.77;;;8.77;;
77625;SDS011;66794;43.764;10.436;2023-10-13T14:02:30;11.63;;;7.97;;
77625;SDS011;66794;43.764;10.436;2023-10-13T14:05:20;9.25;;;8.23;;
77625;SDS011;66794;43.764;10.436;2023-10-13T14:08:06;11.82;;;8.20;;
77625;SDS011;66794;43.764;10.436;2023-10-13T14:10:57;10.65;;;7.93;;
77625;SDS011;66794;43.764;10.436;2023-10-13T14:13:58;10.02;;;8.25;;
77625;SDS011;66794;43.764;10.436;2023-10-13T14:16:43;11.15;;;7.65;;
77625;SDS011;66794;43.764;10.436;2023-10-13T14:19:35;12.27;;;8.25;;
77625;SDS011;66794;43.764;10.436;2023-10-13T14:22:25;10.75;;;7.85;;
77625;SDS011;66794;43.764;10.436;2023-10-13T14:25:11;11.20;;;7.68;;
77625;SDS011;66794;43.764;10.436;2023-10-13T14:27:59;12.50;;;8.45;;
77625;SDS011;66794;43.764;10.436;2023-10-13T14:30:49;9.52;;;7.97;;
77625;SDS011;66794;43.764;10.436;2023-10-13T14:33:35;9.45;;;7.57;;
77625;SDS011;66794;43.764;10.436;2023-10-13T14:36:22;10.13;;;8.40;;
77625;SDS011;66794;43.764;10.436;2023-10-13T14:39:08;10.50;;;8.38;;
77625;SDS011;66794;43.764;10.436;2023-10-13T14:41:54;9.55;;;7.82;;
77625;SDS011;66794;43.764;10.436;2023-10-13T14:44:40;12.13;;;8.38;;
77625;SDS011;66794;43.764;10.436;2023-10-13T14:47:26;11.75;;;8.77;;
77625;SDS011;66794;43.764;10.436;2023-10-13T14:50:12;9.73;;;8.00;;
77625;SDS011;66794;43.764;10.436;2023-10-13T14:53:05;10.93;;;8.85;;
77625;SDS011;66794;43.764;10.436;2023-10-13T14:55:51;13.30;;;8.98;;
77625;SDS011;66794;43.764;10.436;2023-10-13T14:58:37;11.30;;;8.05;;
77625;SDS011;66794;43.764;10.436;2023-10-13T15:01:27;10.82;;;8.25;;
77625;SDS011;66794;43.764;10.436;2023-10-13T15:04:13;10.73;;;8.52;;
77625;SDS011;66794;43.764;10.436;2023-10-13T15:06:59;13.57;;;9.95;;
77625;SDS011;66794;43.764;10.436;2023-10-13T15:09:47;11.80;;;8.98;;
77625;SDS011;66794;43.764;10.436;2023-10-13T15:12:32;10.75;;;8.65;;
77625;SDS011;66794;43.764;10.436;2023-10-13T15:15:18;12.45;;;8.98;;
77625;SDS011;66794;43.764;10.436;2023-10-13T15:18:07;13.65;;;8.77;;
77625;SDS011;66794;43.764;10.436;2023-10-13T15:20:53;9.93;;;8.63;;
77625;SDS011;66794;43.764;10.436;2023-10-13T15:23:38;14.73;;;8.82;;
77625;SDS011;66794;43.764;10.436;2023-10-13T15:26:30;11.60;;;9.02;;
77625;SDS011;66794;43.764;10.436;2023-10-13T15:29:17;13.52;;;8.77;;
77625;SDS011;66794;43.764;10.436;2023-10-13T15:32:06;15.73;;;9.45;;
77625;SDS011;66794;43.764;10.436;2023-10-13T15:35:11;10.43;;;8.70;;
77625;SDS011;66794;43.764;10.436;2023-10-13T15:37:57;12.25;;;8.88;;
77625;SDS011;66794;43.764;10.436;2023-10-13T15:40:44;16.30;;;9.35;;
77625;SDS011;66794;43.764;10.436;2023-10-13T15:43:30;9.77;;;8.38;;
77625;SDS011;66794;43.764;10.436;2023-10-13T15:46:16;11.82;;;8.40;;
77625;SDS011;66794;43.764;10.436;2023-10-13T15:49:02;12.20;;;9.30;;
77625;SDS011;66794;43.764;10.436;2023-10-13T15:51:51;14.00;;;8.85;;
77625;SDS011;66794;43.764;10.436;2023-10-13T15:54:37;12.75;;;8.55;;
77625;SDS011;66794;43.764;10.436;2023-10-13T15:57:22;15.18;;;11.18;;
77625;SDS011;66794;43.764;10.436;2023-10-13T16:00:11;9.50;;;8.20;;
77625;SDS011;66794;43.764;10.436;2023-10-13T16:03:10;11.25;;;8.68;;
77625;SDS011;66794;43.764;10.436;2023-10-13T16:05:57;12.07;;;8.95;;
77625;SDS011;66794;43.764;10.436;2023-10-13T16:08:42;13.63;;;9.73;;
77625;SDS011;66794;43.764;10.436;2023-10-13T16:11:28;12.15;;;10.00;;
77625;SDS011;66794;43.764;10.436;2023-10-13T16:14:14;14.38;;;10.27;;
77625;SDS011;66794;43.764;10.436;2023-10-13T16:17:04;14.35;;;10.35;;
77625;SDS011;66794;43.764;10.436;2023-10-13T16:19:50;16.02;;;11.30;;
77625;SDS011;66794;43.764;10.436;2023-10-13T16:22:35;12.48;;;10.27;;
77625;SDS011;66794;43.764;10.436;2023-10-13T16:25:21;12.68;;;11.32;;
77625;SDS011;66794;43.764;10.436;2023-10-13T16:28:09;13.27;;;10.90;;
77625;SDS011;66794;43.764;10.436;2023-10-13T16:30:57;11.75;;;9.98;;
77625;SDS011;66794;43.764;10.436;2023-10-13T16:33:43;15.98;;;11.85;;
77625;SDS011;66794;43.764;10.436;2023-10-13T16:36:29;14.07;;;11.05;;
77625;SDS011;66794;43.764;10.436;2023-10-13T16:39:16;13.02;;;11.50;;
77625;SDS011;66794;43.764;10.436;2023-10-13T16:42:01;16.55;;;13.32;;
77625;SDS011;66794;43.764;10.436;2023-10-13T16:44:53;22.40;;;16.58;;
77625;SDS011;66794;43.764;10.436;2023-10-13T16:47:39;30.27;;;21.00;;
77625;SDS011;66794;43.764;10.436;2023-10-13T16:50:27;33.40;;;23.58;;